Wildwood Camp, Iowa
Current Conditions -  °F | °C
As of 7:28 PM on Sunday 23 Nov 2014 (Local Time) from KDVN Reporting Station
Haze Haze  
Wind Chill:   Ceiling: 200
Heat Index:   Visibility: 0.75mi
Dew Point:   Wind: 5mph
Humidity: 97%   Direction: 140°SE
Pressure: 29.25"   Gusts: NA
Location:  41.7317°N, 90.5411°W
Report Text: KDVN 240128Z AUTO 14004KT 3/4SM BR OVC002 09/09 A2925 RMK AO2 T00940089
Loading
Personal Weather Stations






























Interactive Weather Map New forecast layout! Learn more

10-Day Weather Forecast

Advertisements
Track Severe Weather on mobile